Time;durP1;ratioP1;P1;durP2;ratioP2;P2;SDS_P1;SDS_P2;PMS_P1;PMS_P2;Temp;Humidity;BMP_temperature;BMP_pressure;BME280_temperature;BME280_humidity;BME280_pressure;Samples;Min_cycle;Max_cycle;Signal;HPM_P1;HPM_P2
2023/01/06 00:02:59;;;;;;;;;;;;;;;19.35;41.72;96292.19;10404398;28;2476;-46
2023/01/06 00:08:00;;;;;;;;;;;;;;;19.32;41.51;96301.31;10402744;28;2522;-46
2023/01/06 00:13:00;;;;;;;;;;;;;;;19.32;41.73;96298.69;10403886;28;2386;-46
2023/01/06 00:18:00;;;;;;;;;;;;;;;19.31;41.56;96293.69;10403533;28;2414;-45
2023/01/06 00:23:00;;;;;;;;;;;;;;;19.27;41.46;96284.72;10402407;28;2409;-44
2023/01/06 00:28:01;;;;;;;;;;;;;;;19.29;41.54;96275.53;10408324;28;2615;-47
2023/01/06 00:33:01;;;;;;;;;;;;;;;19.25;41.56;96269.19;10401535;28;2471;-45
2023/01/06 00:38:01;;;;;;;;;;;;;;;19.24;41.45;96278.16;10402499;28;2436;-45
2023/01/06 00:43:02;;;;;;;;;;;;;;;19.23;41.68;96266.03;10405576;28;2478;-49
2023/01/06 00:48:02;;;;;;;;;;;;;;;19.21;41.48;96268.13;10403822;28;2471;-49
2023/01/06 00:53:02;;;;;;;;;;;;;;;19.20;41.47;96266.56;10396260;28;2978;-47
2023/01/06 00:58:02;;;;;;;;;;;;;;;19.20;41.46;96263.94;10403160;28;2396;-46
2023/01/06 01:03:03;;;;;;;;;;;;;;;19.18;41.26;96258.13;10395480;28;2465;-46
2023/01/06 01:08:03;;;;;;;;;;;;;;;19.17;41.22;96256.53;10396937;28;2461;-45
2023/01/06 01:13:03;;;;;;;;;;;;;;;19.14;41.50;96249.16;10398372;28;2420;-47
2023/01/06 01:18:03;;;;;;;;;;;;;;;19.14;41.31;96254.41;10395038;28;2412;-45
2023/01/06 01:23:04;;;;;;;;;;;;;;;19.11;41.40;96236.50;10396941;28;2402;-45
2023/01/06 01:28:04;;;;;;;;;;;;;;;19.11;41.24;96241.78;10404278;28;2377;-48
2023/01/06 01:33:04;;;;;;;;;;;;;;;19.10;41.17;96245.44;10394017;28;2884;-46
2023/01/06 01:38:04;;;;;;;;;;;;;;;19.07;41.22;96240.69;10395872;28;2444;-47
2023/01/06 01:43:05;;;;;;;;;;;;;;;19.08;41.17;96242.25;10391385;28;2472;-45
2023/01/06 01:48:05;;;;;;;;;;;;;;;19.05;41.40;96234.91;10416242;28;2552;-45
2023/01/06 01:53:07;;;;;;;;;;;;;;;19.05;41.12;96237.53;10391444;28;2499;-45
2023/01/06 01:58:09;;;;;;;;;;;;;;;19.05;41.26;96242.78;10402826;28;2457;-46
2023/01/06 02:03:09;;;;;;;;;;;;;;;19.03;41.15;96233.56;10394227;28;2456;-45
2023/01/06 02:08:29;;;;;;;;;;;;;;;19.01;41.15;96233.00;10411590;28;2462;-46
2023/01/06 02:13:30;;;;;;;;;;;;;;;19.00;41.10;96226.97;10395450;28;2457;-47
2023/01/06 02:18:31;;;;;;;;;;;;;;;18.99;41.11;96217.50;10412610;28;2557;-45
2023/01/06 02:23:49;;;;;;;;;;;;;;;18.99;41.10;96216.72;10397261;28;2582;-46
2023/01/06 02:29:04;;;;;;;;;;;;;;;18.96;41.13;96212.75;10402269;28;2488;-47
2023/01/06 02:34:23;;;;;;;;;;;;;;;18.95;41.12;96200.69;10404820;28;2461;-50
2023/01/06 02:39:42;;;;;;;;;;;;;;;18.94;41.03;96201.69;10385104;28;2447;-46
2023/01/06 02:45:01;;;;;;;;;;;;;;;18.94;41.22;96193.06;10391131;28;2533;-47
2023/01/06 02:50:04;;;;;;;;;;;;;;;18.93;41.06;96188.81;10391619;28;2483;-47
2023/01/06 02:55:15;;;;;;;;;;;;;;;18.91;40.93;96183.84;10395041;28;2509;-45
2023/01/06 03:00:28;;;;;;;;;;;;;;;18.91;40.84;96186.47;10392541;28;2577;-46
2023/01/06 03:05:28;;;;;;;;;;;;;;;18.88;40.91;96176.44;10395055;28;2814;-46
2023/01/06 03:10:28;;;;;;;;;;;;;;;18.88;40.97;96173.81;10396188;28;2382;-45
2023/01/06 03:15:28;;;;;;;;;;;;;;;18.86;40.92;96168.03;10400529;28;2521;-47
2023/01/06 03:20:29;;;;;;;;;;;;;;;18.86;40.89;96170.66;10393084;28;2430;-45
2023/01/06 03:25:29;;;;;;;;;;;;;;;18.85;40.67;96160.41;10404093;28;2497;-46
2023/01/06 03:30:33;;;;;;;;;;;;;;;18.84;40.61;96161.44;10408953;28;2473;-47
2023/01/06 03:35:52;;;;;;;;;;;;;;;18.85;40.42;96169.09;10407510;28;2459;-46
2023/01/06 03:40:54;;;;;;;;;;;;;;;18.81;40.54;96172.47;10405908;28;2482;-47
2023/01/06 03:46:12;;;;;;;;;;;;;;;18.82;40.56;96163.53;10418887;28;2419;-46
2023/01/06 03:51:31;;;;;;;;;;;;;;;18.81;40.47;96175.09;10398337;28;2490;-45
2023/01/06 03:56:35;;;;;;;;;;;;;;;18.79;40.72;96180.59;10409723;28;2393;-45
2023/01/06 04:01:35;;;;;;;;;;;;;;;18.77;40.47;96169.56;10416906;28;2999;-47
2023/01/06 04:06:36;;;;;;;;;;;;;;;18.78;40.51;96173.75;10427139;28;2429;-47
2023/01/06 04:16:56;;;;;;;;;;;;;;;18.77;40.50;96171.38;10405769;28;2456;-45
2023/01/06 04:21:56;;;;;;;;;;;;;;;18.77;40.28;96177.44;10403480;28;2468;-46
2023/01/06 04:26:57;;;;;;;;;;;;;;;18.74;40.34;96177.91;10418698;28;2467;-45
2023/01/06 04:31:57;;;;;;;;;;;;;;;18.75;40.27;96179.50;10398989;28;2512;-45
2023/01/06 04:36:57;;;;;;;;;;;;;;;18.72;40.16;96185.25;10408653;28;2469;-48
2023/01/06 04:41:57;;;;;;;;;;;;;;;18.74;40.28;96190.25;10400280;28;2489;-47
2023/01/06 04:46:58;;;;;;;;;;;;;;;18.70;40.26;96184.72;10392263;28;2467;-46
2023/01/06 04:51:58;;;;;;;;;;;;;;;18.70;40.40;96176.84;10401203;28;2440;-47
2023/01/06 04:56:58;;;;;;;;;;;;;;;18.69;40.17;96181.28;10397870;28;2538;-46
2023/01/06 05:01:58;;;;;;;;;;;;;;;18.67;40.13;96174.69;10403731;28;2471;-45
2023/01/06 05:06:59;;;;;;;;;;;;;;;18.68;40.32;96168.41;10402088;28;2406;-47
2023/01/06 05:11:59;;;;;;;;;;;;;;;18.67;41.24;96172.06;10401327;28;2558;-46
2023/01/06 05:16:59;;;;;;;;;;;;;;;18.74;41.01;96172.66;10399864;28;2464;-45
2023/01/06 05:21:59;;;;;;;;;;;;;;;18.79;40.85;96177.97;10397924;28;2460;-45
2023/01/06 05:27:00;;;;;;;;;;;;;;;18.83;40.53;96178.25;10396070;28;2461;-46
2023/01/06 05:32:00;;;;;;;;;;;;;;;18.79;39.78;96175.34;10400397;28;2434;-46
2023/01/06 05:37:00;;;;;;;;;;;;;;;18.78;39.18;96171.13;10401279;28;2601;-45
2023/01/06 05:42:00;;;;;;;;;;;;;;;18.81;38.92;96170.63;10393971;28;2567;-46
2023/01/06 05:47:01;;;;;;;;;;;;;;;18.85;38.57;96176.16;10393554;28;2425;-45
2023/01/06 05:52:01;;;;;;;;;;;;;;;18.89;38.67;96169.34;10399379;28;2478;-45
2023/01/06 05:57:01;;;;;;;;;;;;;;;18.92;38.54;96169.63;10397806;28;2474;-45
2023/01/06 06:02:01;;;;;;;;;;;;;;;18.96;38.59;96168.09;10396321;28;2428;-53
2023/01/06 06:07:02;;;;;;;;;;;;;;;18.99;38.54;96172.06;10398735;28;2479;-47
2023/01/06 06:12:02;;;;;;;;;;;;;;;19.01;38.14;96167.34;10401162;28;2409;-46
2023/01/06 06:17:02;;;;;;;;;;;;;;;19.04;38.10;96178.13;10393045;28;2468;-46
2023/01/06 06:22:03;;;;;;;;;;;;;;;19.06;38.28;96178.66;10396648;28;2493;-48
2023/01/06 06:27:03;;;;;;;;;;;;;;;19.08;38.11;96179.19;10390693;28;2493;-46
2023/01/06 06:32:04;;;;;;;;;;;;;;;19.12;38.03;96179.50;10394460;28;2369;-45
2023/01/06 06:37:04;;;;;;;;;;;;;;;19.13;37.99;96181.06;10391123;28;2477;-46
2023/01/06 06:42:04;;;;;;;;;;;;;;;19.13;37.96;96174.00;10397522;28;2840;-46
2023/01/06 06:47:04;;;;;;;;;;;;;;;19.16;37.70;96168.25;10388378;28;2495;-47
2023/01/06 06:52:05;;;;;;;;;;;;;;;19.18;37.91;96165.34;10394025;28;2430;-46
2023/01/06 06:57:05;;;;;;;;;;;;;;;19.19;37.88;96165.09;10394838;28;2478;-45
2023/01/06 07:02:06;;;;;;;;;;;;;;;19.22;37.71;96167.22;10391608;28;2488;-47
2023/01/06 07:07:06;;;;;;;;;;;;;;;19.25;37.45;96158.00;10395401;28;2414;-46
2023/01/06 07:12:06;;;;;;;;;;;;;;;19.26;37.64;96157.78;10384187;28;2458;-45
2023/01/06 07:17:07;;;;;;;;;;;;;;;19.27;37.70;96156.72;10395263;28;2423;-47
2023/01/06 07:22:07;;;;;;;;;;;;;;;19.29;37.38;96157.25;10386018;28;2481;-46
2023/01/06 07:27:07;;;;;;;;;;;;;;;19.31;37.42;96163.03;10385014;28;2419;-46
2023/01/06 07:32:08;;;;;;;;;;;;;;;19.33;37.58;96160.97;10391243;28;2463;-46
2023/01/06 07:37:08;;;;;;;;;;;;;;;19.33;37.55;96155.72;10392593;28;2461;-46
2023/01/06 07:42:09;;;;;;;;;;;;;;;19.34;37.62;96165.22;10389109;28;2477;-46
2023/01/06 07:47:09;;;;;;;;;;;;;;;19.37;37.53;96158.66;10395952;28;2482;-45
2023/01/06 07:52:09;;;;;;;;;;;;;;;19.38;37.60;96142.63;10398504;28;2512;-46
2023/01/06 07:57:10;;;;;;;;;;;;;;;19.40;37.13;96143.16;10396872;28;2419;-48
2023/01/06 08:02:10;;;;;;;;;;;;;;;19.43;37.47;96145.25;10394891;28;2452;-46
2023/01/06 08:07:11;;;;;;;;;;;;;;;19.44;37.17;96138.97;10405909;28;2577;-47
2023/01/06 08:12:11;;;;;;;;;;;;;;;19.46;37.40;96147.38;10407975;28;2457;-48
2023/01/06 08:17:12;;;;;;;;;;;;;;;19.49;37.76;96157.38;10402365;28;2440;-46
2023/01/06 08:22:12;;;;;;;;;;;;;;;19.52;37.51;96168.41;10392996;28;2848;-47
2023/01/06 08:27:12;;;;;;;;;;;;;;;19.52;37.20;96155.28;10401696;28;2477;-46
2023/01/06 08:32:12;;;;;;;;;;;;;;;19.54;37.56;96151.34;10405549;28;2421;-45
2023/01/06 08:37:13;;;;;;;;;;;;;;;19.65;38.71;96155.63;10409522;28;2463;-51
2023/01/06 08:42:13;;;;;;;;;;;;;;;19.63;37.43;96149.81;10398748;28;2440;-46
2023/01/06 08:47:13;;;;;;;;;;;;;;;19.81;39.58;96145.91;10402362;28;2460;-44
2023/01/06 08:52:14;;;;;;;;;;;;;;;19.89;40.20;96150.69;10396623;28;2423;-45
2023/01/06 08:57:15;;;;;;;;;;;;;;;19.86;38.82;96149.38;10396478;28;2559;-43
2023/01/06 09:02:15;;;;;;;;;;;;;;;19.87;39.87;96155.41;10392229;28;2527;-46
2023/01/06 09:07:15;;;;;;;;;;;;;;;19.90;40.20;96162.78;10396246;28;2518;-44
2023/01/06 09:12:15;;;;;;;;;;;;;;;19.93;40.26;96170.16;10393860;28;2437;-43
2023/01/06 09:17:16;;;;;;;;;;;;;;;19.96;40.75;96165.19;10392913;28;2601;-45
2023/01/06 09:22:16;;;;;;;;;;;;;;;19.95;40.64;96181.22;10391122;28;2761;-44
2023/01/06 09:27:16;;;;;;;;;;;;;;;19.92;41.02;96179.91;10389299;28;2372;-46
2023/01/06 09:32:17;;;;;;;;;;;;;;;19.89;41.18;96185.66;10396026;28;2595;-45
2023/01/06 09:37:17;;;;;;;;;;;;;;;19.87;41.26;96200.13;10399071;28;2434;-43
2023/01/06 09:42:23;;;;;;;;;;;;;;;19.83;41.00;96202.50;10391981;28;2558;-45
2023/01/06 09:47:25;;;;;;;;;;;;;;;19.86;41.23;96211.72;10392387;28;2410;-45
2023/01/06 09:52:30;;;;;;;;;;;;;;;19.87;40.96;96208.03;10413352;28;2430;-43
2023/01/06 09:57:30;;;;;;;;;;;;;;;19.90;41.08;96218.03;10391176;28;2518;-45
2023/01/06 10:02:37;;;;;;;;;;;;;;;19.86;41.13;96206.47;10392529;28;2812;-45
2023/01/06 10:07:43;;;;;;;;;;;;;;;19.86;41.16;96206.47;10406249;28;2472;-44
2023/01/06 10:12:46;;;;;;;;;;;;;;;19.83;41.48;96202.50;10392596;28;2490;-45
2023/01/06 10:17:50;;;;;;;;;;;;;;;19.83;41.51;96199.84;10390324;28;2408;-45
2023/01/06 10:22:53;;;;;;;;;;;;;;;19.79;41.48;96193.53;10395679;28;2499;-44
2023/01/06 10:28:10;;;;;;;;;;;;;;;19.78;41.64;96183.28;10393179;28;2462;-59
2023/01/06 10:33:20;;;;;;;;;;;;;;;19.77;41.66;96182.47;10392749;28;2488;-46
2023/01/06 10:38:33;;;;;;;;;;;;;;;19.80;41.82;96186.44;10404874;28;2485;-48
2023/01/06 10:43:33;;;;;;;;;;;;;;;19.79;41.76;96177.75;10390723;28;2392;-46
2023/01/06 10:48:34;;;;;;;;;;;;;;;19.80;41.75;96186.44;10410762;28;2440;-46
2023/01/06 10:53:34;;;;;;;;;;;;;;;19.83;41.81;96180.66;10388856;28;2470;-46
2023/01/06 10:58:34;;;;;;;;;;;;;;;19.82;41.65;96182.50;10393242;28;2712;-44
2023/01/06 11:03:35;;;;;;;;;;;;;;;19.87;41.85;96176.44;10392980;28;2482;-45
2023/01/06 11:08:35;;;;;;;;;;;;;;;19.75;42.19;96178.50;10381727;28;2477;-45
2023/01/06 11:13:36;;;;;;;;;;;;;;;19.77;42.21;96182.47;10399007;28;2428;-47
2023/01/06 11:18:36;;;;;;;;;;;;;;;19.73;42.38;96172.72;10399024;28;2559;-45
2023/01/06 11:23:38;;;;;;;;;;;;;;;19.79;42.32;96176.94;10395273;28;2399;-44
2023/01/06 11:28:38;;;;;;;;;;;;;;;19.77;41.99;96176.41;10391052;28;2529;-45
2023/01/06 11:33:49;;;;;;;;;;;;;;;19.77;41.94;96179.06;10384742;28;2530;-44
2023/01/06 11:39:01;;;;;;;;;;;;;;;19.72;42.22;96168.53;10390945;28;2601;-44
2023/01/06 11:44:09;;;;;;;;;;;;;;;19.69;42.38;96176.91;10389738;28;2422;-46
2023/01/06 11:49:11;;;;;;;;;;;;;;;19.68;42.65;96170.09;10399891;28;2427;-46
2023/01/06 11:54:22;;;;;;;;;;;;;;;19.69;42.80;96163.78;10395995;28;2444;-46
2023/01/06 11:59:22;;;;;;;;;;;;;;;19.73;42.50;96154.31;10405433;28;2488;-46
2023/01/06 12:04:35;;;;;;;;;;;;;;;19.70;42.75;96139.84;10406570;28;2421;-49
2023/01/06 12:09:35;;;;;;;;;;;;;;;19.68;42.91;96131.41;10406643;28;2473;-46
2023/01/06 12:14:36;;;;;;;;;;;;;;;19.71;42.79;96128.28;10400856;28;2767;-45
2023/01/06 12:19:36;;;;;;;;;;;;;;;19.72;43.16;96129.06;10394336;28;2212;-44
2023/01/06 12:24:37;;;;;;;;;;;;;;;19.74;43.18;96129.59;10400413;28;2145;-44
2023/01/06 12:29:37;;;;;;;;;;;;;;;19.72;43.00;96121.19;10402588;28;2252;-44
2023/01/06 12:34:39;;;;;;;;;;;;;;;19.74;42.92;96121.72;10413197;28;2262;-44
2023/01/06 12:39:41;;;;;;;;;;;;;;;19.77;43.02;96126.44;10416507;28;2157;-45
2023/01/06 12:44:45;;;;;;;;;;;;;;;19.78;42.98;96122.78;10404274;28;2373;-46
2023/01/06 12:49:59;;;;;;;;;;;;;;;19.72;43.24;96124.59;10398760;28;2269;-45
2023/01/06 12:54:59;;;;;;;;;;;;;;;19.78;43.12;96130.66;10397745;28;2260;-46
2023/01/06 12:59:59;;;;;;;;;;;;;;;19.78;42.99;96125.41;10392596;28;2515;-45
2023/01/06 13:05:18;;;;;;;;;;;;;;;19.81;43.05;96140.66;10395237;28;2174;-45
2023/01/06 13:10:37;;;;;;;;;;;;;;;19.79;42.99;96121.72;10394060;28;2189;-45
2023/01/06 13:15:37;;;;;;;;;;;;;;;19.81;43.21;96125.69;10407691;28;2164;-46
2023/01/06 13:20:42;;;;;;;;;;;;;;;19.78;43.50;96130.66;10392681;28;2229;-45
2023/01/06 13:25:48;;;;;;;;;;;;;;;19.76;43.52;96124.88;10396681;28;2183;-44
2023/01/06 13:31:01;;;;;;;;;;;;;;;19.82;43.26;96121.22;10390467;28;2184;-44
2023/01/06 13:36:20;;;;;;;;;;;;;;;19.76;43.35;96133.56;10397231;28;2157;-45
2023/01/06 13:41:21;;;;;;;;;;;;;;;19.75;43.36;96118.81;10393978;28;2143;-49
2023/01/06 13:46:21;;;;;;;;;;;;;;;19.74;43.50;96121.72;10405930;28;2152;-48
2023/01/06 13:51:23;;;;;;;;;;;;;;;19.74;43.50;96135.63;10387277;28;2247;-45
2023/01/06 13:56:24;;;;;;;;;;;;;;;19.70;43.11;96145.09;10417589;28;2121;-48
2023/01/06 14:01:24;;;;;;;;;;;;;;;19.74;42.84;96148.03;10395510;28;2293;-45
2023/01/06 14:06:24;;;;;;;;;;;;;;;19.77;42.86;96164.06;10391764;28;2139;-48
2023/01/06 14:11:25;;;;;;;;;;;;;;;19.86;42.21;96167.00;10386509;28;2186;-45
2023/01/06 14:16:55;;;;;;;;;;;;;;;19.90;42.26;96165.44;10396067;28;2567;-46
2023/01/06 14:22:11;;;;;;;;;;;;;;;19.95;42.23;96152.25;10394314;28;2149;-44
2023/01/06 14:27:11;;;;;;;;;;;;;;;19.98;42.07;96164.91;10409420;28;2175;-45
2023/01/06 14:32:15;;;;;;;;;;;;;;;20.06;42.37;96161.78;10391216;28;2318;-45
2023/01/06 14:37:16;;;;;;;;;;;;;;;20.06;42.37;96154.69;10393698;28;2180;-46
2023/01/06 14:42:20;;;;;;;;;;;;;;;20.16;42.22;96156.53;10390832;28;2181;-45
2023/01/06 14:47:27;;;;;;;;;;;;;;;20.24;40.94;96151.56;10405947;28;2183;-45
2023/01/06 14:52:32;;;;;;;;;;;;;;;20.30;40.76;96149.72;10390554;28;2240;-45
2023/01/06 14:57:36;;;;;;;;;;;;;;;20.39;40.37;96136.84;10396719;28;2273;-48
2023/01/06 15:02:36;;;;;;;;;;;;;;;20.38;39.92;96136.03;10394763;28;2176;-46
2023/01/06 15:07:36;;;;;;;;;;;;;;;20.50;40.15;96133.97;10396510;28;2140;-45
2023/01/06 15:12:36;;;;;;;;;;;;;;;20.45;39.74;96136.59;10399156;28;2171;-46
2023/01/06 15:17:37;;;;;;;;;;;;;;;20.40;39.79;96139.25;10411051;28;2230;-45
2023/01/06 15:22:37;;;;;;;;;;;;;;;20.42;39.81;96134.50;10400263;28;2229;-45
2023/01/06 15:27:43;;;;;;;;;;;;;;;20.50;40.07;96135.81;10393840;28;2145;-44
2023/01/06 15:32:44;;;;;;;;;;;;;;;20.48;39.98;96145.81;10387449;28;2316;-45
2023/01/06 15:37:44;;;;;;;;;;;;;;;20.51;39.96;96150.53;10395073;28;2236;-45
2023/01/06 15:42:44;;;;;;;;;;;;;;;20.51;40.02;96142.63;10394673;28;2141;-46
2023/01/06 15:47:45;;;;;;;;;;;;;;;20.53;39.88;96146.59;10403842;28;2136;-48
2023/01/06 15:52:46;;;;;;;;;;;;;;;20.54;39.92;96148.19;10392395;28;2253;-46
2023/01/06 15:57:49;;;;;;;;;;;;;;;20.59;39.65;96150.00;10400454;28;2224;-48
2023/01/06 16:02:50;;;;;;;;;;;;;;;20.61;39.87;96148.69;10389115;28;2125;-49
2023/01/06 16:07:50;;;;;;;;;;;;;;;20.65;39.93;96156.88;10396617;28;2129;-45
2023/01/06 16:13:09;;;;;;;;;;;;;;;20.66;39.38;96158.44;10411304;28;2654;-46
2023/01/06 16:18:09;;;;;;;;;;;;;;;20.75;39.24;96156.88;10400353;28;2231;-46
2023/01/06 16:23:17;;;;;;;;;;;;;;;20.79;38.82;96163.97;10392870;28;2155;-49
2023/01/06 16:28:18;;;;;;;;;;;;;;;20.81;38.06;96177.66;10402490;28;2114;-44
2023/01/06 16:33:31;;;;;;;;;;;;;;;20.79;37.96;96184.28;10398187;28;2467;-48
2023/01/06 16:38:31;;;;;;;;;;;;;;;20.80;38.06;96185.84;10406468;28;2113;-48
2023/01/06 16:43:31;;;;;;;;;;;;;;;20.80;37.90;96186.63;10399984;28;2144;-44
2023/01/06 16:48:32;;;;;;;;;;;;;;;20.82;37.70;96189.00;10407716;28;2175;-47
2023/01/06 16:53:32;;;;;;;;;;;;;;;20.84;37.63;96190.31;10389974;28;2251;-46
2023/01/06 16:58:33;;;;;;;;;;;;;;;20.85;37.45;96194.56;10413243;28;2276;-44
2023/01/06 17:03:34;;;;;;;;;;;;;;;20.98;37.59;96196.63;10390196;28;2184;-45
2023/01/06 17:08:35;;;;;;;;;;;;;;;20.99;37.12;96200.06;10399426;28;2273;-44
2023/01/06 17:13:35;;;;;;;;;;;;;;;21.02;37.25;96202.19;10415626;28;2179;-48
2023/01/06 17:18:46;;;;;;;;;;;;;;;21.04;37.09;96208.00;10396577;28;2097;-44
2023/01/06 17:23:48;;;;;;;;;;;;;;;21.08;37.28;96200.34;10405510;28;2187;-44
2023/01/06 17:28:48;;;;;;;;;;;;;;;21.15;37.82;96208.75;10397750;28;2392;-48
2023/01/06 17:33:49;;;;;;;;;;;;;;;21.06;37.99;96211.94;10401441;28;2119;-45
2023/01/06 17:38:49;;;;;;;;;;;;;;;20.96;37.23;96222.47;10397071;28;2074;-45
2023/01/06 17:43:49;;;;;;;;;;;;;;;20.87;37.39;96221.44;10396245;28;2184;-44
2023/01/06 17:48:50;;;;;;;;;;;;;;;20.96;38.48;96224.31;10400650;28;2195;-43
2023/01/06 17:59:13;;;;;;;;;;;;;;;20.95;39.26;96231.44;10394805;28;2175;-44
2023/01/06 18:04:13;;;;;;;;;;;;;;;21.00;39.42;96243.78;10404376;28;2197;-45
2023/01/06 18:09:14;;;;;;;;;;;;;;;20.92;39.56;96239.84;10403730;28;2235;-44
2023/01/06 18:14:18;;;;;;;;;;;;;;;20.83;39.08;96240.66;10396824;28;2084;-44
2023/01/06 18:19:24;;;;;;;;;;;;;;;20.78;39.25;96251.97;10395648;28;2152;-44
2023/01/06 18:24:34;;;;;;;;;;;;;;;20.76;39.58;96255.91;10399834;28;2140;-48
2023/01/06 18:29:34;;;;;;;;;;;;;;;20.72;39.07;96247.75;10407366;28;2495;-46
2023/01/06 18:34:38;;;;;;;;;;;;;;;20.75;40.61;96257.00;10397008;28;2163;-43
2023/01/06 18:39:43;;;;;;;;;;;;;;;20.74;41.18;96255.41;10398116;28;2128;-46
2023/01/06 18:44:43;;;;;;;;;;;;;;;20.70;41.15;96254.34;10389944;28;2200;-44
2023/01/06 18:49:43;;;;;;;;;;;;;;;20.70;41.27;96249.88;10404120;28;2096;-44
2023/01/06 18:54:44;;;;;;;;;;;;;;;20.68;41.65;96251.16;10396070;28;2250;-42
2023/01/06 18:59:44;;;;;;;;;;;;;;;20.72;42.01;96260.13;10393247;28;2147;-45
2023/01/06 19:04:44;;;;;;;;;;;;;;;20.69;41.79;96252.78;10391119;28;2215;-45
2023/01/06 19:09:45;;;;;;;;;;;;;;;20.64;42.02;96256.19;10390261;28;2175;-43
2023/01/06 19:14:46;;;;;;;;;;;;;;;20.66;41.96;96248.81;10398821;28;2155;-45
2023/01/06 19:19:46;;;;;;;;;;;;;;;20.65;42.21;96252.47;10414359;28;2190;-45
2023/01/06 19:25:05;;;;;;;;;;;;;;;20.61;42.36;96246.16;10395728;28;2317;-43
2023/01/06 19:30:11;;;;;;;;;;;;;;;20.59;42.17;96242.19;10394999;28;2228;-42
2023/01/06 19:35:15;;;;;;;;;;;;;;;20.55;42.53;96241.94;10389423;28;2224;-46
2023/01/06 19:40:24;;;;;;;;;;;;;;;20.59;42.18;96235.09;10399825;28;2150;-46
2023/01/06 19:45:28;;;;;;;;;;;;;;;20.57;41.20;96245.09;10401825;28;2364;-41
2023/01/06 19:50:28;;;;;;;;;;;;;;;20.59;40.78;96239.56;10402512;28;2258;-44
2023/01/06 19:55:29;;;;;;;;;;;;;;;20.63;40.43;96244.03;10387983;28;2180;-44
2023/01/06 20:00:30;;;;;;;;;;;;;;;20.71;40.68;96245.41;10403972;28;2242;-43
2023/01/06 20:05:31;;;;;;;;;;;;;;;20.74;39.82;96248.28;10400387;28;2587;-47
2023/01/06 20:10:31;;;;;;;;;;;;;;;20.74;39.71;96248.28;10409191;28;2123;-43
2023/01/06 20:15:31;;;;;;;;;;;;;;;20.76;38.69;96235.63;10407335;28;2180;-44
2023/01/06 20:20:31;;;;;;;;;;;;;;;20.79;37.84;96234.34;10407606;28;2207;-45
2023/01/06 20:25:32;;;;;;;;;;;;;;;20.81;38.77;96232.22;10408927;28;2273;-45
2023/01/06 20:30:32;;;;;;;;;;;;;;;20.76;37.69;96226.94;10403778;28;2234;-45
2023/01/06 20:35:33;;;;;;;;;;;;;;;20.75;37.42;96222.75;10416331;28;2283;-43
2023/01/06 20:40:33;;;;;;;;;;;;;;;20.74;37.06;96223.78;10407013;28;2192;-43
2023/01/06 20:45:33;;;;;;;;;;;;;;;20.72;36.67;96215.34;10405070;28;2399;-48
2023/01/06 20:50:34;;;;;;;;;;;;;;;20.71;37.74;96214.53;10404377;28;2131;-44
2023/01/06 20:55:34;;;;;;;;;;;;;;;20.70;37.36;96214.81;10407030;28;2132;-46
2023/01/06 21:00:35;;;;;;;;;;;;;;;20.68;36.96;96212.47;10407181;28;2187;-43
2023/01/06 21:05:35;;;;;;;;;;;;;;;20.72;37.58;96216.16;10405611;28;2558;-46
2023/01/06 21:10:36;;;;;;;;;;;;;;;20.79;37.24;96213.25;10404134;28;2182;-44
2023/01/06 21:15:36;;;;;;;;;;;;;;;20.79;38.36;96211.38;10406238;28;2169;-45
2023/01/06 21:20:37;;;;;;;;;;;;;;;20.86;39.43;96206.66;10401472;28;2137;-44
2023/01/06 21:25:37;;;;;;;;;;;;;;;20.84;38.56;96208.75;10402631;28;2249;-44
2023/01/06 21:30:37;;;;;;;;;;;;;;;20.79;39.64;96203.47;10404965;28;2131;-46
2023/01/06 21:35:37;;;;;;;;;;;;;;;20.68;40.26;96207.19;10404820;28;2180;-47
2023/01/06 21:40:38;;;;;;;;;;;;;;;20.56;39.63;96209.28;10401399;28;2153;-44
2023/01/06 21:45:38;;;;;;;;;;;;;;;20.63;42.93;96203.78;10397048;28;2360;-44
2023/01/06 21:50:40;;;;;;;;;;;;;;;20.54;41.48;96203.50;10393889;28;2092;-43
2023/01/06 21:55:40;;;;;;;;;;;;;;;20.58;43.66;96204.56;10403412;28;2317;-44
2023/01/06 22:00:40;;;;;;;;;;;;;;;20.63;41.65;96201.91;10411217;28;2334;-44
2023/01/06 22:05:40;;;;;;;;;;;;;;;20.60;40.83;96202.44;10396753;28;2257;-44
2023/01/06 22:10:41;;;;;;;;;;;;;;;20.62;40.64;96205.59;10391318;28;2211;-48
2023/01/06 22:15:41;;;;;;;;;;;;;;;20.63;40.52;96212.44;10396770;28;2163;-45
2023/01/06 22:20:41;;;;;;;;;;;;;;;20.64;40.31;96207.97;10402997;28;2225;-43
2023/01/06 22:25:42;;;;;;;;;;;;;;;20.67;40.98;96210.09;10399914;28;2261;-45
2023/01/06 22:30:42;;;;;;;;;;;;;;;20.66;40.51;96204.03;10387528;28;2191;-44
2023/01/06 22:35:42;;;;;;;;;;;;;;;20.64;39.38;96203.50;10399142;28;2125;-43
2023/01/06 22:40:43;;;;;;;;;;;;;;;20.67;39.87;96205.59;10393839;28;2171;-43
2023/01/06 22:45:49;;;;;;;;;;;;;;;20.69;40.41;96200.09;10395919;28;2408;-47
2023/01/06 22:50:56;;;;;;;;;;;;;;;20.67;40.72;96189.03;10397927;28;2218;-47
2023/01/06 22:56:01;;;;;;;;;;;;;;;20.68;40.18;96194.00;10405210;28;2164;-45
2023/01/06 23:01:01;;;;;;;;;;;;;;;20.64;39.81;96192.97;10394007;28;2168;-47
2023/01/06 23:06:11;;;;;;;;;;;;;;;20.73;41.35;96191.38;10389375;28;2148;-43
2023/01/06 23:11:12;;;;;;;;;;;;;;;20.66;41.08;96182.94;10392061;28;2175;-43
2023/01/06 23:16:14;;;;;;;;;;;;;;;20.64;40.42;96179.78;10389654;28;2234;-43
2023/01/06 23:21:15;;;;;;;;;;;;;;;20.64;40.31;96179.00;10398024;28;2196;-46
2023/01/06 23:26:16;;;;;;;;;;;;;;;20.61;40.19;96177.66;10403082;28;2213;-43
2023/01/06 23:31:17;;;;;;;;;;;;;;;20.61;39.63;96182.94;10398761;28;2134;-43
2023/01/06 23:36:18;;;;;;;;;;;;;;;20.58;40.21;96183.47;10402797;28;2166;-42
2023/01/06 23:41:19;;;;;;;;;;;;;;;20.61;40.11;96172.41;10399289;28;2202;-44
2023/01/06 23:46:20;;;;;;;;;;;;;;;20.64;41.24;96169.25;10407771;28;2286;-44
2023/01/06 23:51:21;;;;;;;;;;;;;;;20.62;39.73;96167.94;10400582;28;2173;-46
2023/01/06 23:56:24;;;;;;;;;;;;;;;20.47;40.33;96163.44;10402220;28;2221;-44
